Stations météo

réclame
Mon MeteoGroup
Marknesse aws, Pays-Bas (6273): Température de l'air & dewpoint: 11.07.2018 13:00:00 - 17.07.2018 13:00:00 (CEST)Marknesse aws, Pays-Bas (6273): Température de l'air 5cm & Température de l'air -5cm: 11.07.2018 13:00:00 - 17.07.2018 13:00:00 (CEST)Marknesse aws, Pays-Bas (6273): Température de l'air -20cm & Température de l'air -100cm: 11.07.2018 13:00:00 - 17.07.2018 13:00:00 (CEST)Marknesse aws, Pays-Bas (6273): Vitesse du vent & gusts: 11.07.2018 13:00:00 - 17.07.2018 13:00:00 (CEST)Marknesse aws, Pays-Bas (6273): Direction du vent: 11.07.2018 13:00:00 - 17.07.2018 13:00:00 (CEST)Marknesse aws, Pays-Bas (6273): visibility: 11.07.2018 13:00:00 - 17.07.2018 13:00:00 (CEST)Marknesse aws, Pays-Bas (6273): Quantités de précipitations: 11.07.2018 13:00:00 - 17.07.2018 13:00:00 (CEST)
Date & Time tt [°C] td [°C] tt 5cm [°C] tt -5cm [°C] tt -20cm [°C] tt -100cm [°C] ff [km/h] ff [knt] fx [km/h] fx [knt] dd vv [km] rr [mm]
17.07.2018 13:00:00 25,1 15,7 27,0 26,8 20,9 15,7 14 8 32 18 WSW 24 0,0
17.07.2018 12:00:00 25,0 15,2 27,3 25,5 20,7 15,7 18 10 32 18 W 32 0,0
17.07.2018 11:00:00 25,2 13,9 27,1 23,8 20,6 15,7 14 8 22 12 SW 27 0,0
17.07.2018 10:00:00 24,5 14,8 26,0 22,0 20,6 15,6 7 4 14 8 SW 29 0,0
17.07.2018 09:00:00 21,4 15,9 21,0 20,5 20,7 15,6 4 2 7 4 S 21 0,0
17.07.2018 08:00:00 18,8 16,5 18,4 20,0 20,8 15,6 4 2 18 10 SE 15 0,0
17.07.2018 07:00:00 16,8 15,8 15,7 19,6 21,0 15,5 7 4 11 6 ESE 13 0,0
17.07.2018 06:00:00 15,1 14,0 13,2 19,8 21,3 15,5 4 2 11 6 E 14 0,0
17.07.2018 05:00:00 15,4 14,2 13,9 20,3 21,5 15,5 4 2 11 6 E 21 0,0
17.07.2018 04:00:00 15,0 14,0 14,2 20,6 21,8 15,4 7 4 7 4 E 16 0,0
17.07.2018 03:00:00 16,5 14,2 15,3 21,1 22,1 15,4 7 4 22 12 SSW 29 0,0
17.07.2018 02:00:00 16,3 14,5 14,1 21,8 22,3 15,4 11 6 11 6 E 28 0,0
17.07.2018 01:00:00 16,6 14,3 13,2 22,6 22,6 15,3 11 6 11 6 ENE 30 0,0
17.07.2018 00:00:00 17,2 14,4 13,6 23,7 22,8 15,3 4 2 7 4 ENE 30 0,0
16.07.2018 23:00:00 19,3 14,3 15,5 25,1 23,0 15,2 4 2 11 6 NE 44 0,0
16.07.2018 22:00:00 21,6 14,5 20,4 26,6 23,1 15,2 7 4 14 8 ENE 48 0,0
16.07.2018 21:00:00 23,8 15,0 24,0 28,2 23,1 15,2 11 6 14 8 NW 45 0,0
16.07.2018 20:00:00 27,0 13,6 27,5 29,6 23,0 15,1 4 2 18 10 W 39 0,0
16.07.2018 19:00:00 27,5 10,1 29,7 31,0 22,8 15,1 4 2 7 4 NNE 44 0,0
16.07.2018 18:00:00 28,4 9,1 30,1 31,8 22,5 15,1 4 2 14 8 ESE 38 0,0
16.07.2018 17:00:00 28,1 10,2 30,6 32,2 22,1 15,0 7 4 14 8 ESE 43 0,0
16.07.2018 16:00:00 28,1 12,2 30,9 31,9 21,6 15,0 7 4 18 10 NNE 33 0,0
16.07.2018 15:00:00 26,9 10,7 30,3 30,8 21,2 15,0 11 6 22 12 ESE 29 0,0
16.07.2018 14:00:00 26,8 12,0 29,7 29,3 20,7 14,9 7 4 22 12 E 42 0,0
16.07.2018 13:00:00 25,9 11,4 28,9 27,5 20,4 14,9 11 6 22 12 E 34 0,0
16.07.2018 12:00:00 25,2 11,6 27,9 25,4 20,1 14,9 11 6 22 12 ENE 32 0,0
16.07.2018 11:00:00 24,7 13,9 27,1 23,4 20,0 14,9 11 6 18 10 E 37 0,0
16.07.2018 10:00:00 23,2 13,5 25,5 21,4 19,9 14,9 7 4 18 10 SE 25 0,0
16.07.2018 09:00:00 21,1 14,4 21,9 19,8 20,0 14,9 7 4 18 10 E 30 0,0
16.07.2018 08:00:00 18,2 14,1 18,2 18,9 20,2 14,9 14 8 18 10 E 24 0,0
16.07.2018 07:00:00 15,7 13,8 14,7 18,6 20,4 14,9 7 4 11 6 E 15 0,0
16.07.2018 06:00:00 13,4 12,3 11,4 18,9 20,7 14,9 7 4 11 6 E 13 0,0
16.07.2018 05:00:00 13,9 12,7 13,0 19,5 20,9 14,9 7 4 11 6 E 14 0,0
16.07.2018 04:00:00 14,1 12,8 13,0 20,0 21,1 14,9 7 4 14 8 E 19 0,0
16.07.2018 03:00:00 15,7 13,3 14,6 20,6 21,4 14,9 11 6 14 8 E 28 0,0
16.07.2018 02:00:00 16,6 13,6 15,9 21,3 21,6 14,9 11 6 18 10 E 29 0,0
16.07.2018 01:00:00 17,1 13,9 15,8 21,9 21,8 14,9 11 6 14 8 E 32 0,0
16.07.2018 00:00:00 16,8 13,9 15,3 22,8 22,0 14,9 7 4 18 10 E 42 0,0
15.07.2018 23:00:00 18,3 14,4 17,3 24,0 22,2 14,9 7 4 14 8 ENE 45 0,0
15.07.2018 22:00:00 19,8 14,1 18,4 25,4 22,3 14,8 7 4 11 6 ENE 48 0,0
15.07.2018 21:00:00 22,7 14,7 23,1 26,9 22,3 14,8 7 4 11 6 ENE 46 0,0
15.07.2018 20:00:00 25,4 11,9 26,0 28,4 22,2 14,8 7 4 14 8 E 39 0,0
15.07.2018 19:00:00 26,0 12,3 27,5 29,5 22,0 14,8 11 6 18 10 E 36 0,0
15.07.2018 18:00:00 26,4 10,8 28,2 30,4 21,7 14,8 7 4 22 12 SE 36 0,0
15.07.2018 17:00:00 26,5 11,1 29,2 30,7 21,3 14,8 11 6 18 10 ENE 36 0,0
15.07.2018 16:00:00 25,9 11,0 28,7 30,3 20,8 14,8 11 6 22 12 E 36 0,0
15.07.2018 15:00:00 24,9 11,1 28,3 29,3 20,4 14,8 11 6 18 10 ESE 45 0,0
15.07.2018 14:00:00 24,4 10,8 27,4 27,9 20,0 14,8 11 6 22 12 E 33 0,0
15.07.2018 13:00:00 23,2 11,6 26,4 26,1 19,6 14,8 11 6 22 12 E 35 0,0
15.07.2018 12:00:00 22,4 12,2 25,1 24,0 19,4 14,8 14 8 22 12 E 36 0,0
15.07.2018 11:00:00 21,4 13,3 24,2 22,0 19,2 14,8 11 6 18 10 E 34 0,0
15.07.2018 10:00:00 19,9 12,9 21,9 20,0 19,2 14,8 11 6 18 10 ESE 29 0,0
15.07.2018 09:00:00 18,0 12,9 19,2 18,5 19,3 14,8 11 6 18 10 ESE 30 0,0
15.07.2018 08:00:00 15,9 12,9 15,8 17,4 19,5 14,8 11 6 18 10 E 11 0,0
15.07.2018 07:00:00 13,3 12,2 11,8 17,0 19,8 14,8 4 2 7 4 ENE 11 0,0
15.07.2018 06:00:00 10,6 10,1 7,7 17,3 20,0 14,8 4 2 7 4 ENE 8 0,0
15.07.2018 05:00:00 10,7 10,3 8,4 17,8 20,3 14,8 4 2 11 6 ENE 10 0,0
15.07.2018 04:00:00 11,5 10,6 9,2 18,3 20,6 14,8 7 4 11 6 ENE 19 0,0
15.07.2018 03:00:00 11,9 10,7 9,6 18,9 20,8 14,8 7 4 11 6 E 30 0,0
15.07.2018 02:00:00 12,3 10,8 10,1 19,6 21,1 14,9 7 4 11 6 ENE 42 0,0
15.07.2018 01:00:00 12,9 10,7 10,2 20,5 21,4 14,9 4 2 11 6 ENE 48 0,0
15.07.2018 00:00:00 13,6 10,7 11,5 21,4 21,6 14,9 7 4 11 6 NE 47 0,0
14.07.2018 23:00:00 14,5 10,5 12,5 22,6 21,8 14,9 7 4 11 6 NE 48 0,0
14.07.2018 22:00:00 15,9 12,1 14,8 24,1 21,9 14,9 7 4 18 10 NNE 10 0,0
14.07.2018 21:00:00 18,9 12,6 19,0 25,5 22,0 14,9 14 8 22 12 N 42 0,0
14.07.2018 20:00:00 20,8 13,3 21,5 27,0 21,9 14,9 14 8 25 14 N 35 0,0
14.07.2018 19:00:00 22,2 12,9 23,7 28,4 21,7 14,9 14 8 25 14 N 38 0,0
14.07.2018 18:00:00 22,8 12,2 25,3 29,4 21,4 14,9 11 6 36 19 N 33 0,0
14.07.2018 17:00:00 22,9 11,7 25,9 29,9 21,0 15,0 7 4 22 12 NNW 32 0,0
14.07.2018 16:00:00 22,7 12,0 25,6 29,7 20,5 15,0 4 2 22 12 NNW 30 0,0
14.07.2018 15:00:00 22,3 11,9 25,9 28,6 20,1 15,0 11 6 25 14 NNW 36 0,0
14.07.2018 14:00:00 21,7 11,6 24,6 27,2 19,7 14,9 11 6 18 10 N 32 0,0
14.07.2018 13:00:00 21,6 11,9 24,5 25,0 19,4 14,9 11 6 22 12 N 32 0,0
14.07.2018 12:00:00 21,1 12,2 22,1 23,2 19,1 14,9 11 6 22 12 NE 36 0,0
14.07.2018 11:00:00 19,2 11,2 21,6 21,3 19,0 14,9 11 6 22 12 N 32 0,0
14.07.2018 10:00:00 18,0 11,4 19,9 19,8 19,0 14,9 7 4 14 8 NNE 33 0,0
14.07.2018 09:00:00 16,9 13,5 17,3 18,5 19,1 14,9 7 4 11 6 N 31 0,0
14.07.2018 08:00:00 15,4 13,4 15,3 17,6 19,2 14,9 0 0 4 2 N 18 0,0
14.07.2018 07:00:00 13,1 12,4 12,9 17,1 19,5 15,0 0 0 4 2 N 16 0,0
14.07.2018 06:00:00 11,1 11,1 9,5 16,9 19,7 15,0 4 2 7 4 NNW 9 0,0
14.07.2018 05:00:00 9,7 9,6 6,8 17,3 20,0 15,0 4 2 7 4 NW 0,6 0,0
14.07.2018 04:00:00 10,4 10,3 7,4 17,9 20,3 15,0 4 2 7 4 NNW 0,8 0,0
14.07.2018 03:00:00 10,3 10,2 7,5 18,5 20,5 15,1 0 0 4 2 N 0,7 0,0
14.07.2018 02:00:00 11,2 10,9 8,3 19,3 20,8 15,1 0 0 4 2 N 8 0,0
14.07.2018 01:00:00 12,1 11,5 9,5 20,1 21,0 15,1 4 2 11 6 NE 11 0,0
14.07.2018 00:00:00 12,8 11,8 11,5 21,1 21,2 15,2 7 4 11 6 NNE 15 0,0
13.07.2018 23:00:00 13,9 12,4 13,2 22,2 21,4 15,2 7 4 18 10 N 15 0,0
13.07.2018 22:00:00 15,8 12,5 15,4 23,4 21,5 15,3 14 8 22 12 N 41 0,0
13.07.2018 21:00:00 17,6 13,1 17,7 24,8 21,6 15,3 14 8 22 12 N 40 0,0
13.07.2018 20:00:00 19,6 13,4 20,4 26,2 21,5 15,4 14 8 25 14 N 34 0,0
13.07.2018 19:00:00 21,0 13,6 22,7 27,4 21,3 15,4 18 10 25 14 N 30 0,0
13.07.2018 18:00:00 21,7 13,6 24,3 28,3 21,0 15,5 14 8 29 16 N 30 0,0
13.07.2018 17:00:00 21,8 13,9 24,4 28,7 20,7 15,5 14 8 29 16 NNW 28 0,0
13.07.2018 16:00:00 22,5 14,2 25,2 28,6 20,2 15,6 11 6 22 12 NNW 26 0,0
13.07.2018 15:00:00 21,8 13,8 24,6 27,7 19,8 15,7 11 6 25 14 N 25 0,0
13.07.2018 14:00:00 21,2 14,2 24,5 26,4 19,4 15,8 7 4 22 12 N 24 0,0
13.07.2018 13:00:00 20,2 13,8 23,5 24,3 19,1 15,9 7 4 22 12 N 28 0,0
13.07.2018 12:00:00 19,5 13,9 22,4 22,3 18,9 16,1 11 6 25 14 NNW 26 0,0
13.07.2018 11:00:00 18,4 13,7 21,5 20,5 18,9 16,2 14 8 22 12 N 19 0,0
13.07.2018 10:00:00 17,2 13,5 18,4 19,3 18,9 16,4 11 6 22 12 NNW 19 0,0
13.07.2018 09:00:00 16,5 13,7 17,0 18,3 18,9 16,4 11 6 18 10 NNW 19 0,0
13.07.2018 08:00:00 15,4 13,8 15,4 17,7 19,1 16,4 11 6 14 8 NW 13 0,0
13.07.2018 07:00:00 13,8 13,6 13,6 17,2 19,3 16,4 7 4 7 4 W 5 0,0
13.07.2018 06:00:00 11,4 11,3 10,0 17,1 19,5 16,4 4 2 7 4 WSW 2,8 0,0
13.07.2018 05:00:00 11,1 11,1 9,1 17,4 19,8 16,4 7 4 7 4 WSW 2,6 0,0
13.07.2018 04:00:00 10,9 10,8 8,4 18,0 20,0 16,4 4 2 7 4 WNW 3,3 0,0
13.07.2018 03:00:00 12,1 11,8 9,6 18,6 20,3 16,4 7 4 11 6 NW 9 0,0
13.07.2018 02:00:00 12,8 12,3 11,3 19,3 20,5 16,4 7 4 11 6 NW 11 0,0
13.07.2018 01:00:00 13,1 12,5 11,6 20,1 20,7 16,4 7 4 11 6 NW 13 0,0
13.07.2018 00:00:00 14,1 13,1 13,2 21,0 20,9 16,4 7 4 14 8 NNW 15 0,0
12.07.2018 23:00:00 15,3 13,6 14,6 22,0 21,1 16,4 11 6 18 10 NNW 18 0,0
12.07.2018 22:00:00 16,6 13,7 16,0 23,2 21,2 16,4 14 8 25 14 NW 24 0,0
12.07.2018 21:00:00 18,6 14,2 18,7 24,5 21,2 16,4 14 8 25 14 NNW 25 0,0
12.07.2018 20:00:00 20,5 14,9 21,2 25,6 21,1 16,4 18 10 29 16 NW 20 0,0
12.07.2018 19:00:00 22,1 14,6 23,4 26,6 20,9 16,4 18 10 32 18 NW 28 0,0
12.07.2018 18:00:00 22,8 15,1 24,4 27,3 20,6 16,4 18 10 32 18 NW 25 0,0
12.07.2018 17:00:00 23,0 15,7 25,1 27,7 20,3 16,4 22 12 29 16 NW 22 0,0
12.07.2018 16:00:00 23,9 15,4 26,3 27,7 19,9 16,4 18 10 29 16 NW 23 0,0
12.07.2018 15:00:00 23,2 15,2 26,3 26,9 19,4 16,4 14 8 25 14 NW 27 0,0
12.07.2018 14:00:00 22,9 15,6 25,9 25,8 19,0 16,4 14 8 29 16 NW 25 0,0
12.07.2018 13:00:00 22,2 15,4 24,5 24,5 18,7 16,4 11 6 25 14 N 32 0,0
12.07.2018 12:00:00 21,4 14,2 24,1 22,6 18,5 16,4 14 8 22 12 NNW 25 0,0
12.07.2018 11:00:00 20,3 15,2 22,5 20,8 18,3 16,4 14 8 22 12 NNW 23 0,0
12.07.2018 10:00:00 18,7 15,1 21,1 19,1 18,3 16,4 14 8 22 12 NNW 17 0,0
12.07.2018 09:00:00 17,5 15,2 17,3 18,1 18,3 16,4 11 6 22 12 N 15 0,0
12.07.2018 08:00:00 15,8 14,8 15,8 17,6 18,4 16,4 18 10 29 16 NNW 13 0,0
12.07.2018 07:00:00 15,3 14,9 15,2 17,2 18,6 16,4 11 6 18 10 NNW 7 0,0
12.07.2018 06:00:00 14,5 14,3 14,0 17,1 18,7 16,4 11 6 14 8 NW 5 0,0
12.07.2018 05:00:00 13,9 13,5 11,9 17,5 18,9 16,4 4 2 14 8 NNW 5 0,0
12.07.2018 04:00:00 14,6 14,1 13,9 17,8 19,0 16,4 11 6 18 10 NW 8 0,0
12.07.2018 03:00:00 14,4 13,7 13,6 18,1 19,2 16,4 11 6 14 8 NW 11 0,0
12.07.2018 02:00:00 14,4 13,6 13,5 18,6 19,3 16,4 7 4 14 8 NW 11 0,0
12.07.2018 01:00:00 14,8 13,8 13,9 19,1 19,5 16,4 11 6 18 10 NW 11 0,0
12.07.2018 00:00:00 15,4 13,8 14,2 19,7 19,6 16,4 7 4 14 8 NNW 18 0,0
11.07.2018 23:00:00 16,6 13,5 15,5 20,5 19,7 16,4 11 6 18 10 NNW 31 0,0
11.07.2018 22:00:00 18,0 13,2 17,4 21,4 19,7 16,4 14 8 22 12 N 48 0,0
11.07.2018 21:00:00 19,4 14,4 19,6 22,5 19,6 16,4 7 4 29 16 N 45 0,0
11.07.2018 20:00:00 21,5 14,2 21,8 23,4 19,5 16,4 18 10 29 16 NNE 35 0,0
11.07.2018 19:00:00 22,3 13,6 23,2 23,6 19,3 16,4 14 8 29 16 NNE 33 0,0
11.07.2018 18:00:00 22,2 13,5 23,0 23,7 19,1 16,4 18 10 32 18 N 41 0,0
11.07.2018 17:00:00 22,1 13,8 23,0 23,7 18,8 16,4 22 12 36 19 NNW 31 0,0
11.07.2018 16:00:00 23,1 14,8 23,0 23,0 18,5 16,4 22 12 40 21 NNW 29 0,0
11.07.2018 15:00:00 22,2 12,9 23,8 22,5 18,3 16,4 22 12 36 19 NNW 28 0,0
11.07.2018 14:00:00 21,2 14,0 23,5 21,4 18,1 16,4 18 10 32 18 NW 23 0,0
11.07.2018 13:00:00 20,6 14,7 20,9 20,1 17,9 16,4 11 6 32 18 N 29 0,0

tt = Température de l'air
td = dewpoint
tt 5cm = Température de l'air 5cm
tt -5cm = Température de l'air -5cm
tt -20cm = Température de l'air -20cm
tt -100cm = Température de l'air -100cm
ff = Vitesse du vent
fx = gusts
dd = Direction du vent
vv = visibility
rr = Quantités de précipitations

stations d'obs. à proximité